sensor_id;sensor_type;location;lat;lon;timestamp;pressure;altitude;pressure_sealevel;temperature
74915;BMP280;63475;45.140;-75.616;2022-10-30T16:14:23;101237.84;;;24.40
74915;BMP280;63475;45.140;-75.616;2022-10-30T16:15:28;101239.53;;;24.38
74915;BMP280;63475;45.140;-75.616;2022-10-30T16:16:30;101204.78;;;24.05
74915;BMP280;63475;45.140;-75.616;2022-10-30T16:17:31;101235.50;;;24.28
74915;BMP280;63475;45.140;-75.616;2022-10-30T16:18:33;101231.31;;;24.27
74915;BMP280;63475;45.140;-75.616;2022-10-30T16:19:42;101223.44;;;24.23
74915;BMP280;63475;45.140;-75.616;2022-10-30T16:20:49;101229.09;;;24.25
74915;BMP280;63475;45.140;-75.616;2022-10-30T16:21:50;101196.69;;;24.05
74915;BMP280;63475;45.140;-75.616;2022-10-30T16:22:52;101225.38;;;24.23
74915;BMP280;63475;45.140;-75.616;2022-10-30T16:23:55;101217.22;;;24.17
74915;BMP280;63475;45.140;-75.616;2022-10-30T16:24:56;101227.59;;;24.24
74915;BMP280;63475;45.140;-75.616;2022-10-30T16:25:58;101224.06;;;24.18
74915;BMP280;63475;45.140;-75.616;2022-10-30T16:27:14;101220.28;;;24.10
74915;BMP280;63475;45.140;-75.616;2022-10-30T16:28:45;101218.28;;;23.85
74915;BMP280;63475;45.140;-75.616;2022-10-30T16:29:52;101195.06;;;23.73
74915;BMP280;63475;45.140;-75.616;2022-10-30T16:30:55;101212.34;;;23.81
74915;BMP280;63475;45.140;-75.616;2022-10-30T16:31:56;101209.44;;;23.49
74915;BMP280;63475;45.140;-75.616;2022-10-30T16:32:58;101205.03;;;23.32
74915;BMP280;63475;45.140;-75.616;2022-10-30T16:33:59;101206.53;;;23.33
74915;BMP280;63475;45.140;-75.616;2022-10-30T16:35:02;101209.25;;;23.33
74915;BMP280;63475;45.140;-75.616;2022-10-30T16:36:04;101206.81;;;23.35
74915;BMP280;63475;45.140;-75.616;2022-10-30T16:37:10;101200.41;;;23.32
74915;BMP280;63475;45.140;-75.616;2022-10-30T16:38:13;101193.50;;;23.31
74915;BMP280;63475;45.140;-75.616;2022-10-30T16:39:15;101192.31;;;23.32
74915;BMP280;63475;45.140;-75.616;2022-10-30T16:40:28;101152.53;;;23.12
74915;BMP280;63475;45.140;-75.616;2022-10-30T16:41:30;101180.84;;;23.37
74915;BMP280;63475;45.140;-75.616;2022-10-30T16:42:32;101176.13;;;23.32
74915;BMP280;63475;45.140;-75.616;2022-10-30T16:43:33;101179.41;;;23.21
74915;BMP280;63475;45.140;-75.616;2022-10-30T16:44:35;101176.28;;;22.94
74915;BMP280;63475;45.140;-75.616;2022-10-30T16:45:46;101166.50;;;22.82
74915;BMP280;63475;45.140;-75.616;2022-10-30T16:47:57;101151.94;;;22.59
74915;BMP280;63475;45.140;-75.616;2022-10-30T16:49:06;101164.94;;;22.60
74915;BMP280;63475;45.140;-75.616;2022-10-30T16:50:13;101158.03;;;21.26
74915;BMP280;63475;45.140;-75.616;2022-10-30T16:51:16;101157.53;;;21.46
74915;BMP280;63475;45.140;-75.616;2022-10-30T16:52:28;101160.56;;;21.62
74915;BMP280;63475;45.140;-75.616;2022-10-30T16:53:31;101143.59;;;21.47
74915;BMP280;63475;45.140;-75.616;2022-10-30T16:54:36;101153.13;;;21.57
74915;BMP280;63475;45.140;-75.616;2022-10-30T16:55:37;101114.38;;;21.31
74915;BMP280;63475;45.140;-75.616;2022-10-30T16:56:38;101150.13;;;21.22
74915;BMP280;63475;45.140;-75.616;2022-10-30T16:57:52;101148.94;;;21.23
74915;BMP280;63475;45.140;-75.616;2022-10-30T16:59:03;101137.50;;;21.05
74915;BMP280;63475;45.140;-75.616;2022-10-30T17:00:06;101101.16;;;20.76
74915;BMP280;63475;45.140;-75.616;2022-10-30T17:01:18;101137.97;;;20.94
74915;BMP280;63475;45.140;-75.616;2022-10-30T17:02:26;101131.41;;;20.86
74915;BMP280;63475;45.140;-75.616;2022-10-30T17:03:32;101104.78;;;20.55
74915;BMP280;63475;45.140;-75.616;2022-10-30T17:04:33;101115.78;;;20.66
74915;BMP280;63475;45.140;-75.616;2022-10-30T17:05:35;101131.72;;;20.70
74915;BMP280;63475;45.140;-75.616;2022-10-30T17:06:43;101136.84;;;20.59
74915;BMP280;63475;45.140;-75.616;2022-10-30T17:08:02;101129.53;;;20.50
74915;BMP280;63475;45.140;-75.616;2022-10-30T17:09:20;101125.66;;;20.24
74915;BMP280;63475;45.140;-75.616;2022-10-30T17:11:40;101094.63;;;19.95
74915;BMP280;63475;45.140;-75.616;2022-10-30T17:12:44;101102.06;;;19.91
74915;BMP280;63475;45.140;-75.616;2022-10-30T17:17:23;101111.75;;;19.89
74915;BMP280;63475;45.140;-75.616;2022-10-30T17:18:28;101100.84;;;19.83
74915;BMP280;63475;45.140;-75.616;2022-10-30T17:19:44;101104.38;;;19.62
74915;BMP280;63475;45.140;-75.616;2022-10-30T17:20:58;101101.38;;;19.60
74915;BMP280;63475;45.140;-75.616;2022-10-30T17:22:06;101091.06;;;19.49
74915;BMP280;63475;45.140;-75.616;2022-10-30T17:23:16;101049.16;;;19.25
74915;BMP280;63475;45.140;-75.616;2022-10-30T17:24:24;101103.16;;;19.54
74915;BMP280;63475;45.140;-75.616;2022-10-30T17:26:36;101083.66;;;19.23
74915;BMP280;63475;45.140;-75.616;2022-10-30T17:27:51;101094.28;;;19.35
74915;BMP280;63475;45.140;-75.616;2022-10-30T17:28:52;101057.34;;;19.21
74915;BMP280;63475;45.140;-75.616;2022-10-30T17:29:53;101081.94;;;19.38
74915;BMP280;63475;45.140;-75.616;2022-10-30T17:30:55;101059.88;;;19.25
74915;BMP280;63475;45.140;-75.616;2022-10-30T17:31:57;101079.56;;;19.40
74915;BMP280;63475;45.140;-75.616;2022-10-30T17:32:58;101079.25;;;19.38
74915;BMP280;63475;45.140;-75.616;2022-10-30T17:34:13;101078.66;;;19.34
74915;BMP280;63475;45.140;-75.616;2022-10-30T17:35:15;101074.69;;;19.38
74915;BMP280;63475;45.140;-75.616;2022-10-30T17:36:19;101001.19;;;18.87
74915;BMP280;63475;45.140;-75.616;2022-10-30T17:37:20;101062.06;;;19.08
74915;BMP280;63475;45.140;-75.616;2022-10-30T17:38:20;101051.94;;;19.12
74915;BMP280;63475;45.140;-75.616;2022-10-30T17:39:21;101028.84;;;19.05
74915;BMP280;63475;45.140;-75.616;2022-10-30T17:40:22;101048.22;;;19.18
74915;BMP280;63475;45.140;-75.616;2022-10-30T17:41:23;101060.41;;;19.10
74915;BMP280;63475;45.140;-75.616;2022-10-30T17:42:24;101046.84;;;19.05
74915;BMP280;63475;45.140;-75.616;2022-10-30T17:43:28;101057.00;;;19.19
74915;BMP280;63475;45.140;-75.616;2022-10-30T17:44:34;101054.00;;;19.08
74915;BMP280;63475;45.140;-75.616;2022-10-30T17:45:35;101046.91;;;18.92
74915;BMP280;63475;45.140;-75.616;2022-10-30T17:46:35;101046.50;;;19.03
74915;BMP280;63475;45.140;-75.616;2022-10-30T17:47:36;100914.03;;;18.24
74915;BMP280;63475;45.140;-75.616;2022-10-30T17:48:37;101042.88;;;19.18
74915;BMP280;63475;45.140;-75.616;2022-10-30T17:49:41;101002.31;;;18.98
74915;BMP280;63475;45.140;-75.616;2022-10-30T17:50:42;101038.41;;;19.15
74915;BMP280;63475;45.140;-75.616;2022-10-30T17:51:43;100985.69;;;18.82
74915;BMP280;63475;45.140;-75.616;2022-10-30T17:52:44;101039.00;;;19.19
74915;BMP280;63475;45.140;-75.616;2022-10-30T17:53:49;101006.81;;;19.10
74915;BMP280;63475;45.140;-75.616;2022-10-30T17:54:49;100981.44;;;18.93
74915;BMP280;63475;45.140;-75.616;2022-10-30T17:56:29;101026.38;;;19.29
74915;BMP280;63475;45.140;-75.616;2022-10-30T17:57:31;101030.63;;;19.08
74915;BMP280;63475;45.140;-75.616;2022-10-30T17:58:31;101023.50;;;19.14
74915;BMP280;63475;45.140;-75.616;2022-10-30T17:59:32;101018.75;;;19.18
74915;BMP280;63475;45.140;-75.616;2022-10-30T18:00:33;100975.91;;;18.88
74915;BMP280;63475;45.140;-75.616;2022-10-30T18:01:34;100971.59;;;18.90
74915;BMP280;63475;45.140;-75.616;2022-10-30T18:02:35;100988.22;;;19.07
74915;BMP280;63475;45.140;-75.616;2022-10-30T18:03:37;100997.03;;;19.16
74915;BMP280;63475;45.140;-75.616;2022-10-30T18:04:38;101008.00;;;19.09
74915;BMP280;63475;45.140;-75.616;2022-10-30T18:05:40;101004.50;;;18.91
74915;BMP280;63475;45.140;-75.616;2022-10-30T18:06:42;100980.34;;;18.82
74915;BMP280;63475;45.140;-75.616;2022-10-30T18:07:43;101006.16;;;18.97
74915;BMP280;63475;45.140;-75.616;2022-10-30T18:08:45;100987.69;;;18.99
74915;BMP280;63475;45.140;-75.616;2022-10-30T18:09:45;101000.41;;;19.17
74915;BMP280;63475;45.140;-75.616;2022-10-30T18:10:46;100997.91;;;19.23
74915;BMP280;63475;45.140;-75.616;2022-10-30T18:11:48;100987.66;;;19.21
74915;BMP280;63475;45.140;-75.616;2022-10-30T18:12:49;100946.63;;;18.93
74915;BMP280;63475;45.140;-75.616;2022-10-30T18:13:51;100994.81;;;19.33
74915;BMP280;63475;45.140;-75.616;2022-10-30T18:14:52;100995.81;;;19.17
74915;BMP280;63475;45.140;-75.616;2022-10-30T18:15:56;100986.72;;;19.06
74915;BMP280;63475;45.140;-75.616;2022-10-30T18:16:57;100952.81;;;18.81
74915;BMP280;63475;45.140;-75.616;2022-10-30T18:17:58;100991.66;;;19.07
74915;BMP280;63475;45.140;-75.616;2022-10-30T18:18:59;100977.50;;;19.07
74915;BMP280;63475;45.140;-75.616;2022-10-30T18:20:00;100985.84;;;19.18
74915;BMP280;63475;45.140;-75.616;2022-10-30T18:21:01;100985.53;;;19.07
74915;BMP280;63475;45.140;-75.616;2022-10-30T18:22:02;100984.78;;;19.06
74915;BMP280;63475;45.140;-75.616;2022-10-30T18:23:08;100983.72;;;19.04
74915;BMP280;63475;45.140;-75.616;2022-10-30T18:24:14;100928.06;;;18.68
74915;BMP280;63475;45.140;-75.616;2022-10-30T18:25:22;100984.22;;;19.11
74915;BMP280;63475;45.140;-75.616;2022-10-30T18:26:26;100976.91;;;19.12
74915;BMP280;63475;45.140;-75.616;2022-10-30T18:27:27;100937.66;;;18.87
74915;BMP280;63475;45.140;-75.616;2022-10-30T18:28:28;100978.84;;;19.11
74915;BMP280;63475;45.140;-75.616;2022-10-30T18:29:29;100975.09;;;19.09
74915;BMP280;63475;45.140;-75.616;2022-10-30T18:30:30;100978.84;;;19.11
74915;BMP280;63475;45.140;-75.616;2022-10-30T18:31:31;100949.00;;;18.91
74915;BMP280;63475;45.140;-75.616;2022-10-30T18:32:32;100956.44;;;18.96
74915;BMP280;63475;45.140;-75.616;2022-10-30T18:33:32;100931.72;;;18.83
74915;BMP280;63475;45.140;-75.616;2022-10-30T18:34:33;100977.34;;;19.10
74915;BMP280;63475;45.140;-75.616;2022-10-30T18:35:35;100972.00;;;19.10
74915;BMP280;63475;45.140;-75.616;2022-10-30T18:36:37;100972.75;;;19.11
74915;BMP280;63475;45.140;-75.616;2022-10-30T18:37:37;100968.88;;;19.12
74915;BMP280;63475;45.140;-75.616;2022-10-30T18:38:38;100946.63;;;18.93
74915;BMP280;63475;45.140;-75.616;2022-10-30T18:39:39;100932.31;;;18.87
74915;BMP280;63475;45.140;-75.616;2022-10-30T18:40:42;100972.31;;;19.12
74915;BMP280;63475;45.140;-75.616;2022-10-30T18:41:45;100933.38;;;18.90
74915;BMP280;63475;45.140;-75.616;2022-10-30T18:42:46;100944.13;;;18.99
74915;BMP280;63475;45.140;-75.616;2022-10-30T18:43:47;100930.56;;;18.93
74915;BMP280;63475;45.140;-75.616;2022-10-30T18:44:48;100949.34;;;19.02
74915;BMP280;63475;45.140;-75.616;2022-10-30T18:45:49;100949.81;;;19.10
74915;BMP280;63475;45.140;-75.616;2022-10-30T18:46:51;100943.41;;;19.07
74915;BMP280;63475;45.140;-75.616;2022-10-30T18:47:54;100955.94;;;19.19
74915;BMP280;63475;45.140;-75.616;2022-10-30T18:48:55;100957.88;;;19.19
74915;BMP280;63475;45.140;-75.616;2022-10-30T18:49:56;100914.34;;;18.97
74915;BMP280;63475;45.140;-75.616;2022-10-30T18:50:57;100953.84;;;19.24
74915;BMP280;63475;45.140;-75.616;2022-10-30T18:51:58;100906.63;;;18.99
74915;BMP280;63475;45.140;-75.616;2022-10-30T18:53:00;100950.59;;;19.29
74915;BMP280;63475;45.140;-75.616;2022-10-30T18:54:01;100919.44;;;19.13
74915;BMP280;63475;45.140;-75.616;2022-10-30T18:55:20;100951.19;;;19.33
74915;BMP280;63475;45.140;-75.616;2022-10-30T18:56:23;100938.09;;;19.35
74915;BMP280;63475;45.140;-75.616;2022-10-30T18:57:26;100930.50;;;19.33
74915;BMP280;63475;45.140;-75.616;2022-10-30T18:58:26;100937.97;;;19.38
74915;BMP280;63475;45.140;-75.616;2022-10-30T18:59:27;100891.63;;;19.10
74915;BMP280;63475;45.140;-75.616;2022-10-30T19:00:29;100933.66;;;19.41
74915;BMP280;63475;45.140;-75.616;2022-10-30T19:01:30;100905.47;;;19.27
74915;BMP280;63475;45.140;-75.616;2022-10-30T19:02:31;100916.03;;;19.31
74915;BMP280;63475;45.140;-75.616;2022-10-30T19:03:32;100837.66;;;18.81
74915;BMP280;63475;45.140;-75.616;2022-10-30T19:04:33;100845.72;;;18.90
74915;BMP280;63475;45.140;-75.616;2022-10-30T19:05:39;100888.34;;;19.25
74915;BMP280;63475;45.140;-75.616;2022-10-30T19:06:40;100920.56;;;19.52
74915;BMP280;63475;45.140;-75.616;2022-10-30T19:07:41;100928.59;;;19.52
74915;BMP280;63475;45.140;-75.616;2022-10-30T19:08:42;100933.06;;;19.55
74915;BMP280;63475;45.140;-75.616;2022-10-30T19:09:43;100880.00;;;19.32
74915;BMP280;63475;45.140;-75.616;2022-10-30T19:10:45;100921.72;;;19.60
74915;BMP280;63475;45.140;-75.616;2022-10-30T19:11:47;100924.69;;;19.62
74915;BMP280;63475;45.140;-75.616;2022-10-30T19:12:47;100913.69;;;19.51
74915;BMP280;63475;45.140;-75.616;2022-10-30T19:13:48;100919.66;;;19.55
74915;BMP280;63475;45.140;-75.616;2022-10-30T19:14:51;100908.00;;;19.22
74915;BMP280;63475;45.140;-75.616;2022-10-30T19:15:53;100918.28;;;19.23
74915;BMP280;63475;45.140;-75.616;2022-10-30T19:16:55;100867.09;;;18.72
74915;BMP280;63475;45.140;-75.616;2022-10-30T19:17:56;100921.34;;;19.03
74915;BMP280;63475;45.140;-75.616;2022-10-30T19:18:57;100890.97;;;18.97
74915;BMP280;63475;45.140;-75.616;2022-10-30T19:19:58;100889.97;;;19.13
74915;BMP280;63475;45.140;-75.616;2022-10-30T19:20:59;100875.69;;;19.07
74915;BMP280;63475;45.140;-75.616;2022-10-30T19:22:00;100910.59;;;19.43
74915;BMP280;63475;45.140;-75.616;2022-10-30T19:23:00;100911.91;;;19.48
74915;BMP280;63475;45.140;-75.616;2022-10-30T19:24:10;100915.94;;;19.52
74915;BMP280;63475;45.140;-75.616;2022-10-30T19:25:24;100911.59;;;19.55
74915;BMP280;63475;45.140;-75.616;2022-10-30T19:26:26;100902.78;;;19.36
74915;BMP280;63475;45.140;-75.616;2022-10-30T19:27:27;100905.63;;;19.24
74915;BMP280;63475;45.140;-75.616;2022-10-30T19:28:28;100897.59;;;19.24
74915;BMP280;63475;45.140;-75.616;2022-10-30T19:29:30;100902.19;;;19.23
74915;BMP280;63475;45.140;-75.616;2022-10-30T19:30:31;100846.63;;;18.96
74915;BMP280;63475;45.140;-75.616;2022-10-30T19:31:31;100857.97;;;19.09
74915;BMP280;63475;45.140;-75.616;2022-10-30T19:32:32;100860.97;;;19.20
74915;BMP280;63475;45.140;-75.616;2022-10-30T19:33:33;100888.81;;;19.41
74915;BMP280;63475;45.140;-75.616;2022-10-30T19:34:34;100883.03;;;19.43
74915;BMP280;63475;45.140;-75.616;2022-10-30T19:35:35;100896.72;;;19.54
74915;BMP280;63475;45.140;-75.616;2022-10-30T19:36:36;100848.75;;;19.19
74915;BMP280;63475;45.140;-75.616;2022-10-30T19:37:38;100898.78;;;19.50
74915;BMP280;63475;45.140;-75.616;2022-10-30T19:38:39;100891.81;;;19.43
74915;BMP280;63475;45.140;-75.616;2022-10-30T19:39:40;100863.50;;;19.24
74915;BMP280;63475;45.140;-75.616;2022-10-30T19:40:41;100891.50;;;19.50
74915;BMP280;63475;45.140;-75.616;2022-10-30T19:41:43;100882.44;;;19.48
74915;BMP280;63475;45.140;-75.616;2022-10-30T19:42:45;100787.41;;;18.76
74915;BMP280;63475;45.140;-75.616;2022-10-30T19:43:46;100861.56;;;19.25
74915;BMP280;63475;45.140;-75.616;2022-10-30T19:44:46;100880.59;;;19.36
74915;BMP280;63475;45.140;-75.616;2022-10-30T19:45:47;100884.22;;;19.42
74915;BMP280;63475;45.140;-75.616;2022-10-30T19:46:48;100886.56;;;19.49
74915;BMP280;63475;45.140;-75.616;2022-10-30T19:47:51;100879.56;;;19.33
74915;BMP280;63475;45.140;-75.616;2022-10-30T19:48:53;100881.34;;;19.36
74915;BMP280;63475;45.140;-75.616;2022-10-30T19:49:53;100862.31;;;19.25
74915;BMP280;63475;45.140;-75.616;2022-10-30T19:50:54;100884.22;;;19.42
74915;BMP280;63475;45.140;-75.616;2022-10-30T19:51:55;100862.44;;;19.31
74915;BMP280;63475;45.140;-75.616;2022-10-30T19:52:57;100841.16;;;19.09
74915;BMP280;63475;45.140;-75.616;2022-10-30T19:53:58;100875.38;;;19.23
74915;BMP280;63475;45.140;-75.616;2022-10-30T19:54:59;100874.78;;;19.10
74915;BMP280;63475;45.140;-75.616;2022-10-30T19:56:00;100873.63;;;19.20
74915;BMP280;63475;45.140;-75.616;2022-10-30T19:57:01;100841.59;;;18.98
74915;BMP280;63475;45.140;-75.616;2022-10-30T19:58:03;100825.50;;;18.80
74915;BMP280;63475;45.140;-75.616;2022-10-30T19:59:08;100866.59;;;19.04
74915;BMP280;63475;45.140;-75.616;2022-10-30T20:00:30;100861.34;;;18.92
74915;BMP280;63475;45.140;-75.616;2022-10-30T20:01:32;100863.75;;;18.90
74915;BMP280;63475;45.140;-75.616;2022-10-30T20:02:33;100843.31;;;18.74
74915;BMP280;63475;45.140;-75.616;2022-10-30T20:03:33;100859.75;;;19.03
74915;BMP280;63475;45.140;-75.616;2022-10-30T20:04:34;100868.84;;;19.06
74915;BMP280;63475;45.140;-75.616;2022-10-30T20:05:38;100857.69;;;19.07
74915;BMP280;63475;45.140;-75.616;2022-10-30T20:06:39;100828.03;;;18.93
74915;BMP280;63475;45.140;-75.616;2022-10-30T20:07:40;100849.75;;;18.95
74915;BMP280;63475;45.140;-75.616;2022-10-30T20:08:42;100842.31;;;18.81
74915;BMP280;63475;45.140;-75.616;2022-10-30T20:09:42;100855.22;;;18.82
74915;BMP280;63475;45.140;-75.616;2022-10-30T20:11:04;100868.44;;;18.76
74915;BMP280;63475;45.140;-75.616;2022-10-30T20:12:05;100860.31;;;18.89
74915;BMP280;63475;45.140;-75.616;2022-10-30T20:13:07;100861.16;;;18.77
74915;BMP280;63475;45.140;-75.616;2022-10-30T20:14:08;100848.53;;;18.77
74915;BMP280;63475;45.140;-75.616;2022-10-30T20:15:22;100853.63;;;18.94
74915;BMP280;63475;45.140;-75.616;2022-10-30T20:16:24;100831.72;;;18.86
74915;BMP280;63475;45.140;-75.616;2022-10-30T20:17:24;100854.97;;;18.98
74915;BMP280;63475;45.140;-75.616;2022-10-30T20:18:28;100847.22;;;19.00
74915;BMP280;63475;45.140;-75.616;2022-10-30T20:19:30;100834.28;;;18.90
74915;BMP280;63475;45.140;-75.616;2022-10-30T20:20:33;100849.91;;;19.00
74915;BMP280;63475;45.140;-75.616;2022-10-30T20:21:34;100757.56;;;18.38
74915;BMP280;63475;45.140;-75.616;2022-10-30T20:22:36;100839.81;;;19.04
74915;BMP280;63475;45.140;-75.616;2022-10-30T20:23:37;100815.38;;;18.84
74915;BMP280;63475;45.140;-75.616;2022-10-30T20:24:38;100837.25;;;18.92
74915;BMP280;63475;45.140;-75.616;2022-10-30T20:25:39;100838.59;;;18.96
74915;BMP280;63475;45.140;-75.616;2022-10-30T20:26:40;100842.75;;;18.79
74915;BMP280;63475;45.140;-75.616;2022-10-30T20:27:43;100838.28;;;18.76
74915;BMP280;63475;45.140;-75.616;2022-10-30T20:28:45;100816.06;;;18.66
74915;BMP280;63475;45.140;-75.616;2022-10-30T20:29:46;100805.34;;;18.66
74915;BMP280;63475;45.140;-75.616;2022-10-30T20:30:47;100836.50;;;18.91
74915;BMP280;63475;45.140;-75.616;2022-10-30T20:31:48;100826.69;;;18.88
74915;BMP280;63475;45.140;-75.616;2022-10-30T20:32:49;100777.25;;;18.62
74915;BMP280;63475;45.140;-75.616;2022-10-30T20:33:50;100834.28;;;18.99
74915;BMP280;63475;45.140;-75.616;2022-10-30T20:34:51;100833.81;;;19.00
74915;BMP280;63475;45.140;-75.616;2022-10-30T20:35:52;100789.59;;;18.68
74915;BMP280;63475;45.140;-75.616;2022-10-30T20:36:56;100791.69;;;18.73
74915;BMP280;63475;45.140;-75.616;2022-10-30T20:37:59;100838.31;;;19.03
74915;BMP280;63475;45.140;-75.616;2022-10-30T20:39:01;100825.50;;;18.98
74915;BMP280;63475;45.140;-75.616;2022-10-30T20:40:02;100826.69;;;18.97
74915;BMP280;63475;45.140;-75.616;2022-10-30T20:41:04;100831.47;;;19.02
74915;BMP280;63475;45.140;-75.616;2022-10-30T20:42:09;100778.44;;;18.61
74915;BMP280;63475;45.140;-75.616;2022-10-30T20:43:32;100835.00;;;18.81
74915;BMP280;63475;45.140;-75.616;2022-10-30T20:44:33;100829.34;;;18.70
74915;BMP280;63475;45.140;-75.616;2022-10-30T20:45:34;100797.13;;;18.43
74915;BMP280;63475;45.140;-75.616;2022-10-30T20:46:35;100812.03;;;18.53
74915;BMP280;63475;45.140;-75.616;2022-10-30T20:47:35;100821.50;;;18.45
74915;BMP280;63475;45.140;-75.616;2022-10-30T20:48:36;100820.94;;;18.59
74915;BMP280;63475;45.140;-75.616;2022-10-30T20:49:37;100775.72;;;18.12
74915;BMP280;63475;45.140;-75.616;2022-10-30T20:50:39;100826.59;;;18.52
74915;BMP280;63475;45.140;-75.616;2022-10-30T20:51:40;100795.63;;;18.42
74915;BMP280;63475;45.140;-75.616;2022-10-30T20:52:41;100819.00;;;18.59
74915;BMP280;63475;45.140;-75.616;2022-10-30T20:53:42;100828.41;;;18.64
74915;BMP280;63475;45.140;-75.616;2022-10-30T20:54:43;100800.00;;;18.26
74915;BMP280;63475;45.140;-75.616;2022-10-30T20:55:44;100789.59;;;18.19
74915;BMP280;63475;45.140;-75.616;2022-10-30T20:56:45;100823.75;;;18.46
74915;BMP280;63475;45.140;-75.616;2022-10-30T20:57:46;100811.84;;;18.47
74915;BMP280;63475;45.140;-75.616;2022-10-30T20:58:47;100817.38;;;18.53
74915;BMP280;63475;45.140;-75.616;2022-10-30T20:59:48;100775.94;;;18.26
74915;BMP280;63475;45.140;-75.616;2022-10-30T21:00:49;100775.50;;;18.28
74915;BMP280;63475;45.140;-75.616;2022-10-30T21:01:50;100812.47;;;18.51
74915;BMP280;63475;45.140;-75.616;2022-10-30T21:02:51;100809.03;;;18.51
74915;BMP280;63475;45.140;-75.616;2022-10-30T21:03:52;100805.44;;;18.45
74915;BMP280;63475;45.140;-75.616;2022-10-30T21:04:53;100817.78;;;18.42
74915;BMP280;63475;45.140;-75.616;2022-10-30T21:05:56;100815.13;;;18.42
74915;BMP280;63475;45.140;-75.616;2022-10-30T21:06:57;100783.31;;;18.13
74915;BMP280;63475;45.140;-75.616;2022-10-30T21:07:58;100817.41;;;18.31
74915;BMP280;63475;45.140;-75.616;2022-10-30T21:09:00;100796.28;;;18.15
74915;BMP280;63475;45.140;-75.616;2022-10-30T21:10:01;100748.13;;;17.84
74915;BMP280;63475;45.140;-75.616;2022-10-30T21:11:04;100803.25;;;18.21
74915;BMP280;63475;45.140;-75.616;2022-10-30T21:12:05;100779.81;;;17.94
74915;BMP280;63475;45.140;-75.616;2022-10-30T21:13:07;100807.41;;;18.13
74915;BMP280;63475;45.140;-75.616;2022-10-30T21:14:08;100802.81;;;18.14
74915;BMP280;63475;45.140;-75.616;2022-10-30T21:15:09;100808.59;;;18.12
74915;BMP280;63475;45.140;-75.616;2022-10-30T21:16:10;100797.28;;;18.08
74915;BMP280;63475;45.140;-75.616;2022-10-30T21:17:11;100803.81;;;18.07
74915;BMP280;63475;45.140;-75.616;2022-10-30T21:18:12;100806.19;;;18.05
74915;BMP280;63475;45.140;-75.616;2022-10-30T21:19:13;100788.88;;;17.97
74915;BMP280;63475;45.140;-75.616;2022-10-30T21:20:14;100787.41;;;17.96
74915;BMP280;63475;45.140;-75.616;2022-10-30T21:21:15;100790.78;;;17.97
74915;BMP280;63475;45.140;-75.616;2022-10-30T21:22:17;100794.78;;;17.92
74915;BMP280;63475;45.140;-75.616;2022-10-30T21:23:18;100791.50;;;17.88
74915;BMP280;63475;45.140;-75.616;2022-10-30T21:24:19;100794.31;;;17.84
74915;BMP280;63475;45.140;-75.616;2022-10-30T21:25:20;100782.22;;;17.71
74915;BMP280;63475;45.140;-75.616;2022-10-30T21:26:21;100788.19;;;17.75
74915;BMP280;63475;45.140;-75.616;2022-10-30T21:27:23;100743.56;;;17.41
74915;BMP280;63475;45.140;-75.616;2022-10-30T21:28:24;100789.91;;;17.69
74915;BMP280;63475;45.140;-75.616;2022-10-30T21:29:25;100783.31;;;17.61
74915;BMP280;63475;45.140;-75.616;2022-10-30T21:30:27;100792.38;;;17.63
74915;BMP280;63475;45.140;-75.616;2022-10-30T21:31:28;100705.88;;;17.04
74915;BMP280;63475;45.140;-75.616;2022-10-30T21:32:29;100755.41;;;17.40
74915;BMP280;63475;45.140;-75.616;2022-10-30T21:33:31;100782.69;;;17.57
74915;BMP280;63475;45.140;-75.616;2022-10-30T21:34:32;100782.94;;;17.49
74915;BMP280;63475;45.140;-75.616;2022-10-30T21:35:33;100752.78;;;17.27
74915;BMP280;63475;45.140;-75.616;2022-10-30T21:36:34;100771.25;;;17.34
74915;BMP280;63475;45.140;-75.616;2022-10-30T21:37:35;100783.63;;;17.41
74915;BMP280;63475;45.140;-75.616;2022-10-30T21:38:36;100762.53;;;17.21
74915;BMP280;63475;45.140;-75.616;2022-10-30T21:39:37;100784.63;;;17.34
74915;BMP280;63475;45.140;-75.616;2022-10-30T21:40:38;100783.97;;;17.30
74915;BMP280;63475;45.140;-75.616;2022-10-30T21:41:39;100757.69;;;17.07
74915;BMP280;63475;45.140;-75.616;2022-10-30T21:42:40;100743.16;;;16.95
74915;BMP280;63475;45.140;-75.616;2022-10-30T21:43:42;100756.00;;;17.00
74915;BMP280;63475;45.140;-75.616;2022-10-30T21:44:43;100782.03;;;17.09
74915;BMP280;63475;45.140;-75.616;2022-10-30T21:45:44;100747.81;;;16.82
74915;BMP280;63475;45.140;-75.616;2022-10-30T21:46:44;100781.09;;;17.03
74915;BMP280;63475;45.140;-75.616;2022-10-30T21:47:45;100740.16;;;16.72
74915;BMP280;63475;45.140;-75.616;2022-10-30T21:48:51;100776.09;;;16.92
74915;BMP280;63475;45.140;-75.616;2022-10-30T21:49:52;100776.84;;;16.80
74915;BMP280;63475;45.140;-75.616;2022-10-30T21:50:53;100776.09;;;16.80
74915;BMP280;63475;45.140;-75.616;2022-10-30T21:51:53;100739.19;;;16.53
74915;BMP280;63475;45.140;-75.616;2022-10-30T21:52:54;100776.69;;;16.62
74915;BMP280;63475;45.140;-75.616;2022-10-30T21:53:55;100742.72;;;16.37
74915;BMP280;63475;45.140;-75.616;2022-10-30T21:54:56;100750.09;;;16.33
74915;BMP280;63475;45.140;-75.616;2022-10-30T21:55:57;100773.13;;;16.40
74915;BMP280;63475;45.140;-75.616;2022-10-30T21:57:02;100760.44;;;16.31
74915;BMP280;63475;45.140;-75.616;2022-10-30T21:58:03;100760.00;;;16.20
74915;BMP280;63475;45.140;-75.616;2022-10-30T21:59:04;100744.19;;;16.00
74915;BMP280;63475;45.140;-75.616;2022-10-30T22:00:06;100760.41;;;16.06
74915;BMP280;63475;45.140;-75.616;2022-10-30T22:01:16;100761.34;;;15.99
74915;BMP280;63475;45.140;-75.616;2022-10-30T22:02:17;100757.81;;;15.89
74915;BMP280;63475;45.140;-75.616;2022-10-30T22:03:18;100759.94;;;15.82
74915;BMP280;63475;45.140;-75.616;2022-10-30T22:04:18;100759.16;;;15.69
74915;BMP280;63475;45.140;-75.616;2022-10-30T22:05:19;100755.84;;;15.65
74915;BMP280;63475;45.140;-75.616;2022-10-30T22:06:21;100751.28;;;15.49
74915;BMP280;63475;45.140;-75.616;2022-10-30T22:07:22;100714.28;;;15.22